weather station
Area: 10056 km2
The highest point: Plechý (1378 m.s.l.)
Total stations: 26
Stations online: 26
Stations offline: 0
Current weather
-2°C

Meteorological map - weather stations in Jihočeský

. The meteorological maps show weather information from WARIO weather stations

Weather stations Jihočeský

 UpdatesNameStatusTemperatureHumidityWind speedWind direction
21.1.2021 09:39Bělčice-3.2 °C100.0 %1.9 m/s E
21.1.2021 09:40Borovany-3.1 °C95.9 %2.7 m/s SE
21.1.2021 09:39Třeboň-1.4 °C96.0 %1.3 m/s E
21.1.2021 09:39Litvínovice - Mokré-1.5 °C96.1 %1.0 m/s SE
21.1.2021 09:40Chrášťovice-3.6 °C100.0 %1.3 m/s S
21.1.2021 09:39České Budějovice - Haklovy Dvory-0.9 °C99.4 %1.5 m/s N
21.1.2021 09:40Jindřichův Hradec4.0 °C87.9 %0.0 m/s N
21.1.2021 09:39Kadov-3.7 °C100.0 %0.0 m/s SW
21.1.2021 09:39České Budějovice1.8 °C64.9 %2.5 m/s S
21.1.2021 09:39Lipno nad Vltavou1.5 °C52.6 %4.7 m/s SE
21.1.2021 09:39Vyšší Brod-5.3 °C96.6 %0.0 m/s SE
21.1.2021 09:39Dolní Vltavice-6.3 °C97.3 %0.0 m/s NW
21.1.2021 09:40Hluboká nad Vltavou - Zámostí-0.3 °C100.0 %0.0 m/s E
21.1.2021 09:39Hluboká nad Vltavou-0.7 °C86.9 %0.7 m/s NW
21.1.2021 09:39Písek - Budějovické Předměstí-2.7 °C99.9 %1.0 m/s SW
21.1.2021 09:39Písek - Pražské Předměstí-1.6 °C99.5 %0.0 m/s SW
21.1.2021 09:40Písek - Václavské Předměstí-3.2 °C92.7 %0.9 m/s SE
21.1.2021 09:39Radošovice-3.2 °C93.1 %0.9 m/s NE
21.1.2021 09:40Rataje-1.9 °C94.4 %1.2 m/s S
21.1.2021 09:39Sedlice-4.1 °C100.0 %2.6 m/s SE
21.1.2021 09:39Sezimovo Ústí-1.0 °C89.2 %2.0 m/s SW
21.1.2021 09:39Stachy6.4 °C46.9 %2.4 m/s N
21.1.2021 09:39Strakonice-3.6 °C100.0 %0.0 m/s W
21.1.2021 09:39Novosedly-3.5 °C100.0 %0.0 m/s E
21.1.2021 09:39Veselí nad Lužnicí - Žíšov-1.0 °C100.0 %0.0 m/s NW
21.1.2021 09:39Milevsko-1.7 °C100.0 %1.3 m/s W
Email notifications
Enter your email address to subscribe to notifications about news at warioweather.com. Your email address will not be used for any purpose other than sending these emails and will not be provided to any third party. The subscription can be ended at any time.
All data are only indicative. The portal administrator has no responsibility for potentially incorrect data and related consequences. Publishing or further sharing of content from www.warioweather.com is only allowed with written consent from WANET s.r.o.